Time;durP1;ratioP1;P1;durP2;ratioP2;P2;SDS_P1;SDS_P2;PMS_P1;PMS_P2;Temp;Humidity;BMP_temperature;BMP_pressure;BME280_temperature;BME280_humidity;BME280_pressure;Samples;Min_cycle;Max_cycle;Signal;HPM_P1;HPM_P2
2024/02/03 03:36:43;;;;;;;7.93;5.43;;;11.50;85.20;;;;;;1556965;23;20390;-82
2024/02/03 03:39:09;;;;;;;8.27;5.47;;;11.60;85.30;;;;;;4974908;28;20051;-81
2024/02/03 03:41:38;;;;;;;7.57;5.32;;;11.50;85.20;;;;;;4961625;28;20022;-81
2024/02/03 03:44:09;;;;;;;8.38;5.55;;;11.50;85.20;;;;;;4944677;28;20154;-82
2024/02/03 03:46:38;;;;;;;8.43;5.87;;;11.60;85.30;;;;;;4929858;28;20043;-81
2024/02/03 03:49:04;;;;;;;8.13;5.65;;;11.70;85.30;;;;;;4943955;29;20296;-81
2024/02/03 03:51:31;;;;;;;7.50;5.22;;;12.10;85.60;;;;;;4944157;28;20020;-81
2024/02/03 03:54:01;;;;;;;8.15;5.60;;;11.50;85.20;;;;;;4928983;28;20022;-81
2024/02/03 03:56:29;;;;;;;8.02;5.47;;;11.60;85.30;;;;;;4929866;28;20048;-81
2024/02/03 03:58:57;;;;;;;8.07;5.20;;;11.50;85.30;;;;;;4945185;28;20016;-82
2024/02/03 04:01:27;;;;;;;8.05;5.70;;;11.60;85.30;;;;;;4929550;28;20016;-81
2024/02/03 04:03:53;;;;;;;7.40;5.20;;;11.60;85.30;;;;;;4944242;28;20039;-81
2024/02/03 04:06:20;;;;;;;8.63;5.63;;;11.70;85.30;;;;;;4944484;28;20066;-81
2024/02/03 04:08:47;;;;;;;7.78;5.35;;;11.50;85.30;;;;;;4944742;28;20018;-80
2024/02/03 04:11:23;;;;;;;7.28;5.35;;;11.60;85.40;;;;;;4944083;28;20044;-81
2024/02/03 04:13:54;;;;;;;7.72;5.55;;;11.60;85.30;;;;;;4959893;28;20056;-83
2024/02/03 04:16:20;;;;;;;7.10;4.83;;;11.40;85.70;;;;;;4944655;28;20023;-81
2024/02/03 04:18:46;;;;;;;7.53;5.40;;;11.80;85.40;;;;;;4944408;28;20035;-81
2024/02/03 04:21:13;;;;;;;8.95;5.93;;;12.20;85.70;;;;;;4944480;29;20083;-80
2024/02/03 04:23:41;;;;;;;7.82;5.13;;;11.60;85.30;;;;;;4944070;28;20152;-81
2024/02/03 04:26:13;;;;;;;8.98;5.72;;;11.40;85.20;;;;;;4928785;28;20095;-82
2024/02/03 04:28:39;;;;;;;7.65;5.10;;;11.50;85.30;;;;;;4944770;28;20027;-81
2024/02/03 04:31:05;;;;;;;7.45;5.03;;;11.60;85.40;;;;;;4944253;28;20020;-81
2024/02/03 04:33:37;;;;;;;7.30;4.82;;;11.60;85.40;;;;;;4929504;28;20011;-81
2024/02/03 04:36:06;;;;;;;7.53;4.97;;;11.80;85.50;;;;;;4944445;28;20020;-81
2024/02/03 04:38:41;;;;;;;7.43;5.03;;;11.50;85.30;;;;;;4928150;28;20055;-80
2024/02/03 04:41:07;;;;;;;7.53;5.13;;;11.40;85.30;;;;;;4943815;28;20012;-81
2024/02/03 04:43:36;;;;;;;7.53;5.28;;;11.60;85.40;;;;;;4959439;28;20020;-80
2024/02/03 04:46:04;;;;;;;7.07;4.80;;;11.60;85.40;;;;;;4960394;28;20011;-81
2024/02/03 04:48:30;;;;;;;7.72;5.07;;;11.60;85.40;;;;;;4943213;28;20043;-81
2024/02/03 04:50:57;;;;;;;7.82;5.13;;;12.90;86.10;;;;;;4943278;28;20044;-82
2024/02/03 04:53:24;;;;;;;7.80;4.97;;;11.60;85.40;;;;;;4928652;28;20012;-81
2024/02/03 04:55:50;;;;;;;7.90;5.20;;;11.50;85.40;;;;;;4943639;28;20036;-82
2024/02/03 04:58:18;;;;;;;7.18;4.60;;;11.60;85.40;;;;;;4943762;28;20043;-82
2024/02/03 05:00:45;;;;;;;7.65;5.00;;;11.60;85.50;;;;;;4928607;28;20023;-82
2024/02/03 05:03:11;;;;;;;7.60;4.40;;;11.60;85.40;;;;;;4943457;28;20007;-81
2024/02/03 05:05:37;;;;;;;7.18;4.93;;;11.40;85.30;;;;;;4943862;28;20043;-81
2024/02/03 05:08:03;;;;;;;7.93;5.03;;;11.60;85.40;;;;;;4943658;28;20007;-81
2024/02/03 05:10:31;;;;;;;7.95;4.57;;;11.40;85.30;;;;;;4943883;28;20023;-83
2024/02/03 05:12:59;;;;;;;7.20;4.78;;;11.50;85.40;;;;;;4943676;28;20015;-82
2024/02/03 05:15:26;;;;;;;6.97;4.70;;;11.60;85.40;;;;;;4958960;28;20034;-81
2024/02/03 05:17:54;;;;;;;7.03;4.85;;;12.10;85.70;;;;;;4960233;28;20012;-80
2024/02/03 05:20:26;;;;;;;7.20;4.70;;;11.60;85.40;;;;;;4944969;28;20016;-81
2024/02/03 05:22:56;;;;;;;7.88;4.93;;;11.60;85.40;;;;;;4928051;28;20012;-81
2024/02/03 05:25:31;;;;;;;6.80;4.33;;;11.60;85.40;;;;;;4921437;28;20052;-81
2024/02/03 05:27:58;;;;;;;7.00;4.57;;;11.60;85.40;;;;;;4924782;28;20264;-80
2024/02/03 05:30:24;;;;;;;7.38;4.47;;;11.70;85.50;;;;;;4894150;28;20012;-81
2024/02/03 05:32:51;;;;;;;6.75;4.45;;;11.70;85.50;;;;;;4923911;28;20023;-81
2024/02/03 05:35:17;;;;;;;7.63;4.57;;;11.60;85.50;;;;;;4924202;28;20012;-81
2024/02/03 05:38:07;;;;;;;6.88;4.45;;;11.60;85.50;;;;;;4924227;28;20024;-81
2024/02/03 05:40:35;;;;;;;7.20;4.55;;;11.60;85.50;;;;;;4924496;28;20012;-80
2024/02/03 05:43:04;;;;;;;6.90;4.40;;;11.60;85.50;;;;;;4924458;28;20525;-80
2024/02/03 05:45:36;;;;;;;6.57;4.55;;;11.50;85.40;;;;;;4940831;28;20114;-80
2024/02/03 05:48:03;;;;;;;7.47;4.47;;;11.50;85.40;;;;;;4908296;28;20029;-81
2024/02/03 05:50:32;;;;;;;6.55;4.30;;;11.60;85.50;;;;;;4939691;28;20033;-81
2024/02/03 05:52:58;;;;;;;6.72;4.45;;;11.50;85.40;;;;;;4924781;28;20080;-81
2024/02/03 05:55:25;;;;;;;6.97;4.50;;;11.60;85.50;;;;;;4923847;28;20027;-81
2024/02/03 05:57:54;;;;;;;6.30;3.97;;;11.60;85.50;;;;;;4926475;29;20087;-81
2024/02/03 06:00:48;;;;;;;6.53;4.50;;;11.50;85.40;;;;;;4927586;28;20059;-80
2024/02/03 06:03:15;;;;;;;6.55;4.15;;;11.80;85.60;;;;;;4943743;28;20020;-83
2024/02/03 06:05:44;;;;;;;6.70;3.95;;;11.80;85.60;;;;;;4942145;28;20028;-80
2024/02/03 06:08:10;;;;;;;6.55;4.20;;;11.40;85.40;;;;;;4912004;28;20017;-80
2024/02/03 06:10:52;;;;;;;6.43;4.05;;;11.50;85.50;;;;;;4911959;28;20037;-81
2024/02/03 06:13:26;;;;;;;6.10;3.90;;;11.50;85.50;;;;;;4944466;28;20052;-81
2024/02/03 06:16:27;;;;;;;6.70;3.85;;;11.60;85.50;;;;;;4928432;28;20013;-81
2024/02/03 07:36:48;;;;;;;6.35;3.63;;;11.60;85.60;;;;;;5037453;23;20048;-85
2024/02/03 07:40:08;;;;;;;5.95;3.47;;;11.50;85.50;;;;;;5000760;28;20025;-85
2024/02/03 13:38:13;;;;;;;26.38;13.73;;;12.20;84.00;;;;;;4922760;29;20039;-84
2024/02/03 13:41:07;;;;;;;23.85;13.88;;;12.20;84.00;;;;;;4923725;29;20005;-82
